This is the latest recevied weather packets stored in our database for station/object W4CKA. If no packets are shown the sender has not sent any weather packets the latest 10 day(s).
| Time | Temp. | Humidity | Pressure | Rain* | Wind** | Luminosity | Snow |
|---|---|---|---|---|---|---|---|
| 1787450693 | 21.67° C | 97% | 1056.8 hPa | 0 mm | - | 0 W/m² | - |
| 1787450090 | 21.67° C | 96% | 1056.6 hPa | 0 mm | - | 0 W/m² | - |
| 1787449487 | 22.22° C | 94% | 1056.9 hPa | 0 mm | - | 0 W/m² | - |
| 1787448887 | 22.22° C | 94% | 1056.9 hPa | 0 mm | - | 0 W/m² | - |
| 1787448285 | 22.78° C | 93% | 1056.7 hPa | 0 mm | - | 0 W/m² | - |
| 1787447684 | 22.78° C | 92% | 1056.4 hPa | 0 mm | - | 0 W/m² | - |
| 1787447082 | 22.78° C | 94% | 1056.5 hPa | 0 mm | - | 0 W/m² | - |
| 1787446478 | 22.78° C | 93% | 1056.4 hPa | 0 mm | - | 0 W/m² | - |
| 1787445876 | 22.78° C | 92% | 1056.5 hPa | 0 mm | - | 0 W/m² | - |
| 1787445273 | 23.33° C | 90% | 1056.2 hPa | 0 mm | - | 0 W/m² | - |
| 1787444670 | 23.33° C | 89% | 1055.9 hPa | 0 mm | - | 0 W/m² | - |
| 1787444067 | 23.89° C | 89% | 1055.4 hPa | 0 mm | - | 0 W/m² | - |
| 1787443466 | 24.44° C | 88% | 1055.5 hPa | 0 mm | - | 4 W/m² | - |
| 1787442861 | 24.44° C | 87% | 1055.5 hPa | 0 mm | - | 11 W/m² | - |
| 1787442259 | 25° C | 85% | 1055.5 hPa | 0 mm | - | 15 W/m² | - |
| 1787441655 | 25.56° C | 84% | 1055.2 hPa | 0 mm | - | 17 W/m² | - |
| 1787441052 | 26.11° C | 82% | 1055.3 hPa | 0 mm | - | 23 W/m² | - |
| 1787440448 | 27.22° C | 77% | 1055.5 hPa | 0 mm | - | 37 W/m² | - |
| 1787439845 | 27.78° C | 78% | 1055.4 hPa | 0 mm | - | 45 W/m² | - |
| 1787439244 | 28.33° C | 73% | 1055.5 hPa | 0 mm | - | 93 W/m² | - |
| 1787438639 | 28.33° C | 70% | 1055.3 hPa | 0 mm | - | 105 W/m² | - |
| 1787438039 | 28.89° C | 69% | 1055.5 hPa | 0 mm | - | 126 W/m² | - |
| 1787437437 | 28.89° C | 70% | 1055.3 hPa | 0 mm | - | 159 W/m² | - |
| 1787436835 | 29.44° C | 68% | 1055.1 hPa | 0 mm | - | 160 W/m² | - |
| 1787436230 | 28.89° C | 70% | 1055.1 hPa | 0 mm | - | 196 W/m² | - |
* Rain latest hour (hover to see other rain measurements)
** Current wind speed in m/s (hover to see current wind gust speed)